sensor_id;sensor_type;location;lat;lon;timestamp;P1;durP1;ratioP1;P2;durP2;ratioP2
54917;SDS011;40818;50.562;7.454;2022-10-31T00:02:52;8.30;;;1.10;;
54917;SDS011;40818;50.562;7.454;2022-10-31T00:07:55;15.20;;;1.00;;
54917;SDS011;40818;50.562;7.454;2022-10-31T00:12:59;5.60;;;1.05;;
54917;SDS011;40818;50.562;7.454;2022-10-31T00:18:05;5.20;;;1.10;;
54917;SDS011;40818;50.562;7.454;2022-10-31T00:23:10;4.90;;;1.10;;
54917;SDS011;40818;50.562;7.454;2022-10-31T00:28:14;6.32;;;0.98;;
54917;SDS011;40818;50.562;7.454;2022-10-31T00:33:20;7.22;;;1.10;;
54917;SDS011;40818;50.562;7.454;2022-10-31T00:38:23;4.57;;;1.00;;
54917;SDS011;40818;50.562;7.454;2022-10-31T00:43:27;9.65;;;0.93;;
54917;SDS011;40818;50.562;7.454;2022-10-31T00:48:33;7.68;;;1.10;;
54917;SDS011;40818;50.562;7.454;2022-10-31T00:53:36;11.68;;;1.90;;
54917;SDS011;40818;50.562;7.454;2022-10-31T00:58:40;6.57;;;1.27;;
54917;SDS011;40818;50.562;7.454;2022-10-31T01:03:46;9.55;;;0.93;;
54917;SDS011;40818;50.562;7.454;2022-10-31T01:08:49;6.82;;;1.00;;
54917;SDS011;40818;50.562;7.454;2022-10-31T01:13:53;10.90;;;0.90;;
54917;SDS011;40818;50.562;7.454;2022-10-31T01:18:59;5.82;;;0.90;;
54917;SDS011;40818;50.562;7.454;2022-10-31T01:24:04;5.30;;;1.00;;
54917;SDS011;40818;50.562;7.454;2022-10-31T01:29:11;5.43;;;0.93;;
54917;SDS011;40818;50.562;7.454;2022-10-31T01:34:17;3.30;;;0.90;;
54917;SDS011;40818;50.562;7.454;2022-10-31T01:39:20;9.40;;;0.88;;
54917;SDS011;40818;50.562;7.454;2022-10-31T01:49:57;3.53;;;0.90;;
54917;SDS011;40818;50.562;7.454;2022-10-31T01:55:05;5.45;;;0.88;;
54917;SDS011;40818;50.562;7.454;2022-10-31T02:00:12;12.00;;;1.13;;
54917;SDS011;40818;50.562;7.454;2022-10-31T02:05:20;7.00;;;0.80;;
54917;SDS011;40818;50.562;7.454;2022-10-31T02:10:29;6.93;;;1.10;;
54917;SDS011;40818;50.562;7.454;2022-10-31T02:15:34;6.30;;;0.90;;
54917;SDS011;40818;50.562;7.454;2022-10-31T02:20:44;4.88;;;0.93;;
54917;SDS011;40818;50.562;7.454;2022-10-31T02:26:01;9.77;;;0.90;;
54917;SDS011;40818;50.562;7.454;2022-10-31T02:31:23;7.15;;;1.08;;
54917;SDS011;40818;50.562;7.454;2022-10-31T02:36:37;9.13;;;1.00;;
54917;SDS011;40818;50.562;7.454;2022-10-31T02:41:46;4.75;;;1.00;;
54917;SDS011;40818;50.562;7.454;2022-10-31T02:47:03;7.43;;;1.10;;
54917;SDS011;40818;50.562;7.454;2022-10-31T02:52:18;4.70;;;0.90;;
54917;SDS011;40818;50.562;7.454;2022-10-31T02:57:24;12.77;;;0.95;;
54917;SDS011;40818;50.562;7.454;2022-10-31T03:02:36;6.82;;;1.00;;
54917;SDS011;40818;50.562;7.454;2022-10-31T03:07:53;8.73;;;0.90;;
54917;SDS011;40818;50.562;7.454;2022-10-31T03:13:06;6.15;;;1.10;;
54917;SDS011;40818;50.562;7.454;2022-10-31T03:18:18;4.32;;;0.90;;
54917;SDS011;40818;50.562;7.454;2022-10-31T03:23:29;11.00;;;0.93;;
54917;SDS011;40818;50.562;7.454;2022-10-31T03:28:35;7.07;;;1.00;;
54917;SDS011;40818;50.562;7.454;2022-10-31T03:33:43;6.20;;;0.80;;
54917;SDS011;40818;50.562;7.454;2022-10-31T03:38:48;7.90;;;0.95;;
54917;SDS011;40818;50.562;7.454;2022-10-31T03:43:54;11.43;;;1.00;;
54917;SDS011;40818;50.562;7.454;2022-10-31T03:49:04;5.60;;;0.93;;
54917;SDS011;40818;50.562;7.454;2022-10-31T03:54:08;7.45;;;1.00;;
54917;SDS011;40818;50.562;7.454;2022-10-31T03:59:19;5.97;;;1.10;;
54917;SDS011;40818;50.562;7.454;2022-10-31T04:04:30;5.63;;;0.80;;
54917;SDS011;40818;50.562;7.454;2022-10-31T04:09:35;7.88;;;1.10;;
54917;SDS011;40818;50.562;7.454;2022-10-31T04:14:40;11.85;;;1.48;;
54917;SDS011;40818;50.562;7.454;2022-10-31T04:19:48;9.18;;;1.10;;
54917;SDS011;40818;50.562;7.454;2022-10-31T04:24:52;7.55;;;0.90;;
54917;SDS011;40818;50.562;7.454;2022-10-31T04:29:55;7.03;;;0.90;;
54917;SDS011;40818;50.562;7.454;2022-10-31T04:35:02;6.45;;;1.00;;
54917;SDS011;40818;50.562;7.454;2022-10-31T04:40:07;9.52;;;1.02;;
54917;SDS011;40818;50.562;7.454;2022-10-31T04:45:34;7.32;;;1.38;;
54917;SDS011;40818;50.562;7.454;2022-10-31T04:50:40;5.80;;;1.00;;
54917;SDS011;40818;50.562;7.454;2022-10-31T04:55:44;7.75;;;1.00;;
54917;SDS011;40818;50.562;7.454;2022-10-31T05:00:52;8.45;;;1.10;;
54917;SDS011;40818;50.562;7.454;2022-10-31T05:05:58;4.80;;;1.20;;
54917;SDS011;40818;50.562;7.454;2022-10-31T05:11:02;5.28;;;1.00;;
54917;SDS011;40818;50.562;7.454;2022-10-31T05:16:07;9.52;;;1.10;;
54917;SDS011;40818;50.562;7.454;2022-10-31T05:21:32;8.60;;;1.10;;
54917;SDS011;40818;50.562;7.454;2022-10-31T05:26:37;8.02;;;1.08;;
54917;SDS011;40818;50.562;7.454;2022-10-31T05:31:40;7.18;;;1.27;;
54917;SDS011;40818;50.562;7.454;2022-10-31T05:36:58;5.38;;;1.10;;
54917;SDS011;40818;50.562;7.454;2022-10-31T05:42:01;6.55;;;1.20;;
54917;SDS011;40818;50.562;7.454;2022-10-31T05:47:04;8.70;;;1.45;;
54917;SDS011;40818;50.562;7.454;2022-10-31T05:52:29;11.10;;;1.33;;
54917;SDS011;40818;50.562;7.454;2022-10-31T05:57:40;18.20;;;1.92;;
54917;SDS011;40818;50.562;7.454;2022-10-31T06:02:43;6.63;;;1.40;;
54917;SDS011;40818;50.562;7.454;2022-10-31T06:08:00;12.85;;;1.98;;
54917;SDS011;40818;50.562;7.454;2022-10-31T06:13:04;5.72;;;1.40;;
54917;SDS011;40818;50.562;7.454;2022-10-31T06:18:16;12.52;;;1.40;;
54917;SDS011;40818;50.562;7.454;2022-10-31T06:23:25;10.38;;;1.92;;
54917;SDS011;40818;50.562;7.454;2022-10-31T06:28:48;9.07;;;1.30;;
54917;SDS011;40818;50.562;7.454;2022-10-31T06:34:05;7.18;;;1.65;;
54917;SDS011;40818;50.562;7.454;2022-10-31T06:39:12;14.52;;;2.28;;
54917;SDS011;40818;50.562;7.454;2022-10-31T06:44:15;7.13;;;1.70;;
54917;SDS011;40818;50.562;7.454;2022-10-31T06:49:28;11.07;;;1.45;;
54917;SDS011;40818;50.562;7.454;2022-10-31T06:54:38;11.38;;;2.47;;
54917;SDS011;40818;50.562;7.454;2022-10-31T06:59:42;7.15;;;1.83;;
54917;SDS011;40818;50.562;7.454;2022-10-31T07:04:52;9.07;;;2.08;;
54917;SDS011;40818;50.562;7.454;2022-10-31T07:09:59;8.15;;;2.20;;
54917;SDS011;40818;50.562;7.454;2022-10-31T07:15:21;4.88;;;1.60;;
54917;SDS011;40818;50.562;7.454;2022-10-31T07:20:26;16.15;;;1.90;;
54917;SDS011;40818;50.562;7.454;2022-10-31T07:25:32;15.23;;;2.42;;
54917;SDS011;40818;50.562;7.454;2022-10-31T07:30:49;7.68;;;1.85;;
54917;SDS011;40818;50.562;7.454;2022-10-31T07:35:54;11.48;;;1.88;;
54917;SDS011;40818;50.562;7.454;2022-10-31T07:41:05;14.50;;;1.92;;
54917;SDS011;40818;50.562;7.454;2022-10-31T07:46:14;12.52;;;1.75;;
54917;SDS011;40818;50.562;7.454;2022-10-31T07:51:36;9.15;;;1.60;;
54917;SDS011;40818;50.562;7.454;2022-10-31T08:02:03;16.58;;;1.70;;
54917;SDS011;40818;50.562;7.454;2022-10-31T08:07:22;8.50;;;1.42;;
54917;SDS011;40818;50.562;7.454;2022-10-31T08:12:35;11.38;;;1.60;;
54917;SDS011;40818;50.562;7.454;2022-10-31T08:17:41;6.75;;;1.20;;
54917;SDS011;40818;50.562;7.454;2022-10-31T08:22:52;9.85;;;1.60;;
54917;SDS011;40818;50.562;7.454;2022-10-31T08:27:59;10.20;;;1.73;;
54917;SDS011;40818;50.562;7.454;2022-10-31T08:33:03;4.18;;;1.17;;
54917;SDS011;40818;50.562;7.454;2022-10-31T08:38:43;14.77;;;1.52;;
54917;SDS011;40818;50.562;7.454;2022-10-31T08:43:49;7.72;;;1.27;;
54917;SDS011;40818;50.562;7.454;2022-10-31T08:48:53;6.68;;;1.25;;
54917;SDS011;40818;50.562;7.454;2022-10-31T08:53:57;7.78;;;1.15;;
54917;SDS011;40818;50.562;7.454;2022-10-31T08:59:12;9.20;;;1.20;;
54917;SDS011;40818;50.562;7.454;2022-10-31T09:04:38;7.47;;;1.20;;
54917;SDS011;40818;50.562;7.454;2022-10-31T09:09:42;11.13;;;1.90;;
54917;SDS011;40818;50.562;7.454;2022-10-31T09:14:49;10.35;;;1.13;;
54917;SDS011;40818;50.562;7.454;2022-10-31T09:19:57;10.68;;;1.10;;
54917;SDS011;40818;50.562;7.454;2022-10-31T09:25:06;9.07;;;1.48;;
54917;SDS011;40818;50.562;7.454;2022-10-31T09:30:14;10.32;;;1.00;;
54917;SDS011;40818;50.562;7.454;2022-10-31T09:35:18;7.43;;;1.17;;
54917;SDS011;40818;50.562;7.454;2022-10-31T09:40:22;9.60;;;1.52;;
54917;SDS011;40818;50.562;7.454;2022-10-31T09:45:34;6.72;;;1.30;;
54917;SDS011;40818;50.562;7.454;2022-10-31T09:50:58;4.75;;;0.85;;
54917;SDS011;40818;50.562;7.454;2022-10-31T09:56:21;5.72;;;1.10;;
54917;SDS011;40818;50.562;7.454;2022-10-31T10:01:37;6.37;;;1.10;;
54917;SDS011;40818;50.562;7.454;2022-10-31T10:06:46;14.13;;;1.40;;
54917;SDS011;40818;50.562;7.454;2022-10-31T10:12:30;11.98;;;1.13;;
54917;SDS011;40818;50.562;7.454;2022-10-31T10:17:49;8.77;;;1.10;;
54917;SDS011;40818;50.562;7.454;2022-10-31T10:23:07;7.40;;;1.00;;
54917;SDS011;40818;50.562;7.454;2022-10-31T10:28:25;8.43;;;1.20;;
54917;SDS011;40818;50.562;7.454;2022-10-31T10:33:36;12.00;;;1.00;;
54917;SDS011;40818;50.562;7.454;2022-10-31T10:38:48;10.00;;;1.03;;
54917;SDS011;40818;50.562;7.454;2022-10-31T10:43:55;9.90;;;1.00;;
54917;SDS011;40818;50.562;7.454;2022-10-31T10:49:03;10.32;;;1.10;;
54917;SDS011;40818;50.562;7.454;2022-10-31T10:54:29;13.77;;;1.00;;
54917;SDS011;40818;50.562;7.454;2022-10-31T10:59:41;5.38;;;0.95;;
54917;SDS011;40818;50.562;7.454;2022-10-31T11:04:48;10.00;;;1.05;;
54917;SDS011;40818;50.562;7.454;2022-10-31T11:10:02;8.68;;;1.00;;
54917;SDS011;40818;50.562;7.454;2022-10-31T11:15:19;9.65;;;1.05;;
54917;SDS011;40818;50.562;7.454;2022-10-31T11:20:29;6.43;;;1.60;;
54917;SDS011;40818;50.562;7.454;2022-10-31T11:25:36;9.55;;;1.00;;
54917;SDS011;40818;50.562;7.454;2022-10-31T11:30:42;7.80;;;0.90;;
54917;SDS011;40818;50.562;7.454;2022-10-31T11:35:50;4.78;;;0.90;;
54917;SDS011;40818;50.562;7.454;2022-10-31T11:40:56;11.00;;;1.13;;
54917;SDS011;40818;50.562;7.454;2022-10-31T11:46:08;8.10;;;1.02;;
54917;SDS011;40818;50.562;7.454;2022-10-31T11:51:19;5.25;;;0.80;;
54917;SDS011;40818;50.562;7.454;2022-10-31T11:56:24;6.65;;;0.95;;
54917;SDS011;40818;50.562;7.454;2022-10-31T12:01:28;9.48;;;1.50;;
54917;SDS011;40818;50.562;7.454;2022-10-31T12:06:35;4.93;;;1.27;;
54917;SDS011;40818;50.562;7.454;2022-10-31T12:11:43;9.55;;;1.00;;
54917;SDS011;40818;50.562;7.454;2022-10-31T12:16:55;7.57;;;0.90;;
54917;SDS011;40818;50.562;7.454;2022-10-31T12:22:11;11.88;;;0.90;;
54917;SDS011;40818;50.562;7.454;2022-10-31T12:27:27;13.65;;;1.00;;
54917;SDS011;40818;50.562;7.454;2022-10-31T12:32:40;5.68;;;0.90;;
54917;SDS011;40818;50.562;7.454;2022-10-31T12:38:02;7.60;;;0.85;;
54917;SDS011;40818;50.562;7.454;2022-10-31T12:43:18;6.22;;;0.82;;
54917;SDS011;40818;50.562;7.454;2022-10-31T12:54:05;7.38;;;0.90;;
54917;SDS011;40818;50.562;7.454;2022-10-31T12:59:21;10.13;;;0.93;;
54917;SDS011;40818;50.562;7.454;2022-10-31T13:04:35;3.45;;;0.90;;
54917;SDS011;40818;50.562;7.454;2022-10-31T13:09:47;9.18;;;1.13;;
54917;SDS011;40818;50.562;7.454;2022-10-31T13:14:56;6.63;;;0.90;;
54917;SDS011;40818;50.562;7.454;2022-10-31T13:20:05;12.32;;;1.15;;
54917;SDS011;40818;50.562;7.454;2022-10-31T13:25:22;10.52;;;0.90;;
54917;SDS011;40818;50.562;7.454;2022-10-31T13:30:28;7.30;;;1.00;;
54917;SDS011;40818;50.562;7.454;2022-10-31T13:35:37;4.15;;;1.00;;
54917;SDS011;40818;50.562;7.454;2022-10-31T13:40:50;8.57;;;1.17;;
54917;SDS011;40818;50.562;7.454;2022-10-31T13:46:01;7.00;;;1.00;;
54917;SDS011;40818;50.562;7.454;2022-10-31T13:51:05;11.27;;;1.40;;
54917;SDS011;40818;50.562;7.454;2022-10-31T14:01:35;9.88;;;1.00;;
54917;SDS011;40818;50.562;7.454;2022-10-31T14:06:51;7.47;;;1.08;;
54917;SDS011;40818;50.562;7.454;2022-10-31T14:12:03;8.68;;;0.90;;
54917;SDS011;40818;50.562;7.454;2022-10-31T14:17:16;16.65;;;1.10;;
54917;SDS011;40818;50.562;7.454;2022-10-31T14:22:23;7.40;;;0.80;;
54917;SDS011;40818;50.562;7.454;2022-10-31T14:27:46;11.80;;;1.25;;
54917;SDS011;40818;50.562;7.454;2022-10-31T14:32:52;6.27;;;1.10;;
54917;SDS011;40818;50.562;7.454;2022-10-31T14:38:02;10.07;;;1.20;;
54917;SDS011;40818;50.562;7.454;2022-10-31T14:43:30;10.32;;;0.93;;
54917;SDS011;40818;50.562;7.454;2022-10-31T14:48:53;14.18;;;1.38;;
54917;SDS011;40818;50.562;7.454;2022-10-31T14:54:11;8.30;;;1.10;;
54917;SDS011;40818;50.562;7.454;2022-10-31T14:59:21;11.30;;;0.75;;
54917;SDS011;40818;50.562;7.454;2022-10-31T15:04:28;6.97;;;0.90;;
54917;SDS011;40818;50.562;7.454;2022-10-31T15:09:34;12.85;;;0.73;;
54917;SDS011;40818;50.562;7.454;2022-10-31T15:14:43;16.33;;;1.17;;
54917;SDS011;40818;50.562;7.454;2022-10-31T15:19:48;5.68;;;0.95;;
54917;SDS011;40818;50.562;7.454;2022-10-31T15:24:54;11.18;;;0.82;;
54917;SDS011;40818;50.562;7.454;2022-10-31T15:30:01;9.13;;;0.80;;
54917;SDS011;40818;50.562;7.454;2022-10-31T15:35:08;9.05;;;0.90;;
54917;SDS011;40818;50.562;7.454;2022-10-31T15:40:14;9.73;;;0.90;;
54917;SDS011;40818;50.562;7.454;2022-10-31T15:45:23;12.55;;;0.90;;
54917;SDS011;40818;50.562;7.454;2022-10-31T15:50:30;9.27;;;0.80;;
54917;SDS011;40818;50.562;7.454;2022-10-31T15:55:36;7.55;;;1.05;;
54917;SDS011;40818;50.562;7.454;2022-10-31T16:00:59;10.50;;;0.90;;
54917;SDS011;40818;50.562;7.454;2022-10-31T16:06:04;9.45;;;1.00;;
54917;SDS011;40818;50.562;7.454;2022-10-31T16:11:16;6.30;;;0.90;;
54917;SDS011;40818;50.562;7.454;2022-10-31T16:16:26;15.25;;;1.20;;
54917;SDS011;40818;50.562;7.454;2022-10-31T16:21:33;7.13;;;0.88;;
54917;SDS011;40818;50.562;7.454;2022-10-31T16:26:39;7.47;;;1.10;;
54917;SDS011;40818;50.562;7.454;2022-10-31T16:31:45;5.80;;;0.75;;
54917;SDS011;40818;50.562;7.454;2022-10-31T16:36:49;13.25;;;1.10;;
54917;SDS011;40818;50.562;7.454;2022-10-31T16:41:54;9.27;;;1.00;;
54917;SDS011;40818;50.562;7.454;2022-10-31T16:47:12;9.77;;;1.05;;
54917;SDS011;40818;50.562;7.454;2022-10-31T16:52:17;10.57;;;1.10;;
54917;SDS011;40818;50.562;7.454;2022-10-31T16:57:27;7.13;;;1.00;;
54917;SDS011;40818;50.562;7.454;2022-10-31T17:02:36;7.93;;;1.10;;
54917;SDS011;40818;50.562;7.454;2022-10-31T17:07:41;7.95;;;1.10;;
54917;SDS011;40818;50.562;7.454;2022-10-31T17:12:45;9.27;;;1.10;;
54917;SDS011;40818;50.562;7.454;2022-10-31T17:17:53;8.18;;;1.10;;
54917;SDS011;40818;50.562;7.454;2022-10-31T17:22:58;8.25;;;1.05;;
54917;SDS011;40818;50.562;7.454;2022-10-31T17:28:01;5.03;;;1.20;;
54917;SDS011;40818;50.562;7.454;2022-10-31T17:33:07;7.13;;;1.08;;
54917;SDS011;40818;50.562;7.454;2022-10-31T17:38:13;8.38;;;1.10;;
54917;SDS011;40818;50.562;7.454;2022-10-31T17:43:16;4.60;;;1.20;;
54917;SDS011;40818;50.562;7.454;2022-10-31T17:48:23;6.13;;;1.10;;
54917;SDS011;40818;50.562;7.454;2022-10-31T17:53:27;6.88;;;1.10;;
54917;SDS011;40818;50.562;7.454;2022-10-31T17:58:31;11.35;;;1.25;;
54917;SDS011;40818;50.562;7.454;2022-10-31T18:03:39;6.97;;;1.33;;
54917;SDS011;40818;50.562;7.454;2022-10-31T18:08:43;11.50;;;1.00;;
54917;SDS011;40818;50.562;7.454;2022-10-31T18:13:52;9.32;;;1.30;;
54917;SDS011;40818;50.562;7.454;2022-10-31T18:19:00;10.37;;;1.10;;
54917;SDS011;40818;50.562;7.454;2022-10-31T18:24:05;10.70;;;1.05;;
54917;SDS011;40818;50.562;7.454;2022-10-31T18:29:09;5.20;;;1.00;;
54917;SDS011;40818;50.562;7.454;2022-10-31T18:34:15;5.07;;;1.00;;
54917;SDS011;40818;50.562;7.454;2022-10-31T18:39:19;7.00;;;0.90;;
54917;SDS011;40818;50.562;7.454;2022-10-31T18:44:23;8.80;;;0.80;;
54917;SDS011;40818;50.562;7.454;2022-10-31T18:49:29;4.72;;;0.82;;
54917;SDS011;40818;50.562;7.454;2022-10-31T18:54:33;12.20;;;1.08;;
54917;SDS011;40818;50.562;7.454;2022-10-31T18:59:36;5.72;;;0.90;;
54917;SDS011;40818;50.562;7.454;2022-10-31T19:04:42;8.27;;;0.90;;
54917;SDS011;40818;50.562;7.454;2022-10-31T19:09:46;8.48;;;0.90;;
54917;SDS011;40818;50.562;7.454;2022-10-31T19:14:49;3.55;;;0.80;;
54917;SDS011;40818;50.562;7.454;2022-10-31T19:19:55;8.13;;;0.82;;
54917;SDS011;40818;50.562;7.454;2022-10-31T19:24:58;6.70;;;0.80;;
54917;SDS011;40818;50.562;7.454;2022-10-31T19:30:02;5.10;;;0.80;;
54917;SDS011;40818;50.562;7.454;2022-10-31T19:35:10;9.80;;;1.20;;
54917;SDS011;40818;50.562;7.454;2022-10-31T19:40:13;6.18;;;0.70;;
54917;SDS011;40818;50.562;7.454;2022-10-31T19:45:17;8.25;;;0.85;;
54917;SDS011;40818;50.562;7.454;2022-10-31T19:50:23;3.92;;;0.80;;
54917;SDS011;40818;50.562;7.454;2022-10-31T19:55:28;6.72;;;0.88;;
54917;SDS011;40818;50.562;7.454;2022-10-31T20:00:31;7.68;;;0.70;;
54917;SDS011;40818;50.562;7.454;2022-10-31T20:05:40;6.53;;;0.95;;
54917;SDS011;40818;50.562;7.454;2022-10-31T20:10:54;6.30;;;0.80;;
54917;SDS011;40818;50.562;7.454;2022-10-31T20:16:00;7.53;;;0.80;;
54917;SDS011;40818;50.562;7.454;2022-10-31T20:21:08;5.57;;;0.88;;
54917;SDS011;40818;50.562;7.454;2022-10-31T20:26:14;5.43;;;0.70;;
54917;SDS011;40818;50.562;7.454;2022-10-31T20:31:22;8.77;;;0.90;;
54917;SDS011;40818;50.562;7.454;2022-10-31T20:36:30;4.07;;;1.10;;
54917;SDS011;40818;50.562;7.454;2022-10-31T20:41:35;6.82;;;0.90;;
54917;SDS011;40818;50.562;7.454;2022-10-31T20:46:39;11.30;;;1.58;;
54917;SDS011;40818;50.562;7.454;2022-10-31T20:51:45;8.20;;;1.10;;
54917;SDS011;40818;50.562;7.454;2022-10-31T20:56:48;13.98;;;1.10;;
54917;SDS011;40818;50.562;7.454;2022-10-31T21:01:52;8.00;;;1.13;;
54917;SDS011;40818;50.562;7.454;2022-10-31T21:06:58;6.95;;;1.00;;
54917;SDS011;40818;50.562;7.454;2022-10-31T21:12:01;7.63;;;1.10;;
54917;SDS011;40818;50.562;7.454;2022-10-31T21:17:07;6.50;;;1.10;;
54917;SDS011;40818;50.562;7.454;2022-10-31T21:22:13;9.82;;;1.45;;
54917;SDS011;40818;50.562;7.454;2022-10-31T21:27:17;9.90;;;0.90;;
54917;SDS011;40818;50.562;7.454;2022-10-31T21:32:20;5.20;;;0.80;;
54917;SDS011;40818;50.562;7.454;2022-10-31T21:37:26;11.25;;;0.90;;
54917;SDS011;40818;50.562;7.454;2022-10-31T21:42:30;9.98;;;0.95;;
54917;SDS011;40818;50.562;7.454;2022-10-31T21:47:33;5.38;;;0.82;;
54917;SDS011;40818;50.562;7.454;2022-10-31T21:52:39;7.85;;;0.93;;
54917;SDS011;40818;50.562;7.454;2022-10-31T21:57:43;14.40;;;1.00;;
54917;SDS011;40818;50.562;7.454;2022-10-31T22:02:46;11.07;;;0.90;;
54917;SDS011;40818;50.562;7.454;2022-10-31T22:07:52;6.60;;;0.80;;
54917;SDS011;40818;50.562;7.454;2022-10-31T22:12:56;7.75;;;0.90;;
54917;SDS011;40818;50.562;7.454;2022-10-31T22:17:59;4.57;;;0.90;;
54917;SDS011;40818;50.562;7.454;2022-10-31T22:23:05;5.57;;;1.00;;
54917;SDS011;40818;50.562;7.454;2022-10-31T22:28:08;8.05;;;0.88;;
54917;SDS011;40818;50.562;7.454;2022-10-31T22:33:12;3.97;;;0.88;;
54917;SDS011;40818;50.562;7.454;2022-10-31T22:38:18;16.60;;;0.88;;
54917;SDS011;40818;50.562;7.454;2022-10-31T22:43:21;9.00;;;0.80;;
54917;SDS011;40818;50.562;7.454;2022-10-31T22:48:24;7.72;;;0.80;;
54917;SDS011;40818;50.562;7.454;2022-10-31T22:53:32;4.15;;;0.70;;
54917;SDS011;40818;50.562;7.454;2022-10-31T22:58:36;3.45;;;0.77;;
54917;SDS011;40818;50.562;7.454;2022-10-31T23:03:39;4.00;;;0.70;;
54917;SDS011;40818;50.562;7.454;2022-10-31T23:08:46;4.10;;;0.82;;
54917;SDS011;40818;50.562;7.454;2022-10-31T23:13:50;5.93;;;0.65;;
54917;SDS011;40818;50.562;7.454;2022-10-31T23:19:14;6.47;;;0.73;;
54917;SDS011;40818;50.562;7.454;2022-10-31T23:24:22;5.53;;;0.80;;
54917;SDS011;40818;50.562;7.454;2022-10-31T23:29:26;11.88;;;1.70;;
54917;SDS011;40818;50.562;7.454;2022-10-31T23:34:29;13.32;;;0.90;;
54917;SDS011;40818;50.562;7.454;2022-10-31T23:39:36;7.95;;;0.90;;
54917;SDS011;40818;50.562;7.454;2022-10-31T23:44:39;8.82;;;1.20;;
54917;SDS011;40818;50.562;7.454;2022-10-31T23:49:42;5.65;;;0.82;;
54917;SDS011;40818;50.562;7.454;2022-10-31T23:54:48;6.13;;;0.82;;
54917;SDS011;40818;50.562;7.454;2022-10-31T23:59:52;7.22;;;0.90;;
